sensor_id;sensor_type;location;lat;lon;timestamp;P1;durP1;ratioP1;P2;durP2;ratioP2
41817;SDS011;27493;51.730;5.294;2023-04-06T00:00:35;16.60;;;10.27;;
41817;SDS011;27493;51.730;5.294;2023-04-06T00:03:00;15.97;;;9.23;;
41817;SDS011;27493;51.730;5.294;2023-04-06T00:05:25;17.27;;;10.87;;
41817;SDS011;27493;51.730;5.294;2023-04-06T00:07:52;17.83;;;10.43;;
41817;SDS011;27493;51.730;5.294;2023-04-06T00:10:19;15.83;;;10.17;;
41817;SDS011;27493;51.730;5.294;2023-04-06T00:12:44;14.90;;;10.43;;
41817;SDS011;27493;51.730;5.294;2023-04-06T00:15:09;17.20;;;11.03;;
41817;SDS011;27493;51.730;5.294;2023-04-06T00:17:35;15.47;;;10.40;;
41817;SDS011;27493;51.730;5.294;2023-04-06T00:20:00;14.97;;;9.03;;
41817;SDS011;27493;51.730;5.294;2023-04-06T00:22:25;16.07;;;10.27;;
41817;SDS011;27493;51.730;5.294;2023-04-06T00:24:51;14.93;;;9.57;;
41817;SDS011;27493;51.730;5.294;2023-04-06T00:27:16;17.03;;;10.43;;
41817;SDS011;27493;51.730;5.294;2023-04-06T00:29:41;18.93;;;10.93;;
41817;SDS011;27493;51.730;5.294;2023-04-06T00:32:06;24.57;;;10.93;;
41817;SDS011;27493;51.730;5.294;2023-04-06T00:34:31;17.77;;;11.03;;
41817;SDS011;27493;51.730;5.294;2023-04-06T00:36:56;18.23;;;9.90;;
41817;SDS011;27493;51.730;5.294;2023-04-06T00:39:22;15.23;;;10.70;;
41817;SDS011;27493;51.730;5.294;2023-04-06T00:41:49;13.37;;;10.00;;
41817;SDS011;27493;51.730;5.294;2023-04-06T00:44:15;15.77;;;10.17;;
41817;SDS011;27493;51.730;5.294;2023-04-06T00:46:40;16.73;;;10.83;;
41817;SDS011;27493;51.730;5.294;2023-04-06T00:49:05;16.77;;;11.10;;
41817;SDS011;27493;51.730;5.294;2023-04-06T00:51:31;15.20;;;10.23;;
41817;SDS011;27493;51.730;5.294;2023-04-06T00:53:56;17.20;;;9.97;;
41817;SDS011;27493;51.730;5.294;2023-04-06T00:56:21;15.67;;;10.60;;
41817;SDS011;27493;51.730;5.294;2023-04-06T00:58:48;16.07;;;10.30;;
41817;SDS011;27493;51.730;5.294;2023-04-06T01:01:13;14.13;;;10.20;;
41817;SDS011;27493;51.730;5.294;2023-04-06T01:03:38;15.07;;;9.77;;
41817;SDS011;27493;51.730;5.294;2023-04-06T01:06:04;17.47;;;10.47;;
41817;SDS011;27493;51.730;5.294;2023-04-06T01:08:29;14.90;;;10.33;;
41817;SDS011;27493;51.730;5.294;2023-04-06T01:10:54;18.57;;;10.33;;
41817;SDS011;27493;51.730;5.294;2023-04-06T01:13:19;16.83;;;10.27;;
41817;SDS011;27493;51.730;5.294;2023-04-06T01:15:45;17.03;;;10.70;;
41817;SDS011;27493;51.730;5.294;2023-04-06T01:18:11;16.20;;;10.20;;
41817;SDS011;27493;51.730;5.294;2023-04-06T01:20:36;18.13;;;10.43;;
41817;SDS011;27493;51.730;5.294;2023-04-06T01:23:01;15.87;;;10.10;;
41817;SDS011;27493;51.730;5.294;2023-04-06T01:25:27;14.80;;;10.37;;
41817;SDS011;27493;51.730;5.294;2023-04-06T01:27:52;15.67;;;9.87;;
41817;SDS011;27493;51.730;5.294;2023-04-06T01:30:17;15.60;;;10.23;;
41817;SDS011;27493;51.730;5.294;2023-04-06T01:32:42;15.73;;;10.17;;
41817;SDS011;27493;51.730;5.294;2023-04-06T01:35:08;16.63;;;10.20;;
41817;SDS011;27493;51.730;5.294;2023-04-06T01:37:33;15.27;;;10.33;;
41817;SDS011;27493;51.730;5.294;2023-04-06T01:39:59;17.70;;;11.23;;
41817;SDS011;27493;51.730;5.294;2023-04-06T01:42:24;15.17;;;10.27;;
41817;SDS011;27493;51.730;5.294;2023-04-06T01:44:49;14.83;;;10.40;;
41817;SDS011;27493;51.730;5.294;2023-04-06T01:47:14;15.20;;;10.80;;
41817;SDS011;27493;51.730;5.294;2023-04-06T01:49:40;17.27;;;10.53;;
41817;SDS011;27493;51.730;5.294;2023-04-06T01:52:05;16.23;;;10.77;;
41817;SDS011;27493;51.730;5.294;2023-04-06T01:54:31;16.77;;;10.83;;
41817;SDS011;27493;51.730;5.294;2023-04-06T01:56:56;19.67;;;10.97;;
41817;SDS011;27493;51.730;5.294;2023-04-06T01:59:21;17.37;;;11.33;;
41817;SDS011;27493;51.730;5.294;2023-04-06T02:01:46;15.07;;;10.60;;
41817;SDS011;27493;51.730;5.294;2023-04-06T02:04:11;19.63;;;11.50;;
41817;SDS011;27493;51.730;5.294;2023-04-06T02:06:38;20.80;;;11.13;;
41817;SDS011;27493;51.730;5.294;2023-04-06T02:09:03;17.83;;;10.77;;
41817;SDS011;27493;51.730;5.294;2023-04-06T02:11:28;17.60;;;11.27;;
41817;SDS011;27493;51.730;5.294;2023-04-06T02:13:55;18.83;;;10.77;;
41817;SDS011;27493;51.730;5.294;2023-04-06T02:16:20;18.30;;;11.47;;
41817;SDS011;27493;51.730;5.294;2023-04-06T02:18:45;15.93;;;11.20;;
41817;SDS011;27493;51.730;5.294;2023-04-06T02:21:10;16.90;;;10.73;;
41817;SDS011;27493;51.730;5.294;2023-04-06T02:23:36;19.77;;;12.10;;
41817;SDS011;27493;51.730;5.294;2023-04-06T02:26:01;18.27;;;11.37;;
41817;SDS011;27493;51.730;5.294;2023-04-06T02:28:26;17.87;;;11.60;;
41817;SDS011;27493;51.730;5.294;2023-04-06T02:30:51;16.73;;;11.37;;
41817;SDS011;27493;51.730;5.294;2023-04-06T02:33:17;18.67;;;11.23;;
41817;SDS011;27493;51.730;5.294;2023-04-06T02:35:43;18.93;;;11.90;;
41817;SDS011;27493;51.730;5.294;2023-04-06T02:38:08;19.13;;;11.47;;
41817;SDS011;27493;51.730;5.294;2023-04-06T02:40:34;16.50;;;11.07;;
41817;SDS011;27493;51.730;5.294;2023-04-06T02:42:59;16.30;;;11.53;;
41817;SDS011;27493;51.730;5.294;2023-04-06T02:45:24;18.53;;;11.73;;
41817;SDS011;27493;51.730;5.294;2023-04-06T02:47:51;19.23;;;12.37;;
41817;SDS011;27493;51.730;5.294;2023-04-06T02:50:16;20.43;;;11.57;;
41817;SDS011;27493;51.730;5.294;2023-04-06T02:52:41;18.87;;;12.03;;
41817;SDS011;27493;51.730;5.294;2023-04-06T02:55:06;20.63;;;12.00;;
41817;SDS011;27493;51.730;5.294;2023-04-06T02:57:32;17.90;;;11.53;;
41817;SDS011;27493;51.730;5.294;2023-04-06T02:59:57;19.70;;;11.87;;
41817;SDS011;27493;51.730;5.294;2023-04-06T03:02:23;17.83;;;11.17;;
41817;SDS011;27493;51.730;5.294;2023-04-06T03:04:48;17.00;;;11.17;;
41817;SDS011;27493;51.730;5.294;2023-04-06T03:07:13;18.07;;;12.10;;
41817;SDS011;27493;51.730;5.294;2023-04-06T03:09:38;18.07;;;12.47;;
41817;SDS011;27493;51.730;5.294;2023-04-06T03:12:03;19.50;;;12.57;;
41817;SDS011;27493;51.730;5.294;2023-04-06T03:14:29;21.70;;;12.17;;
41817;SDS011;27493;51.730;5.294;2023-04-06T03:16:54;18.33;;;11.37;;
41817;SDS011;27493;51.730;5.294;2023-04-06T03:19:19;18.50;;;12.20;;
41817;SDS011;27493;51.730;5.294;2023-04-06T03:21:45;20.47;;;12.40;;
41817;SDS011;27493;51.730;5.294;2023-04-06T03:24:10;19.97;;;12.00;;
41817;SDS011;27493;51.730;5.294;2023-04-06T03:26:35;20.90;;;12.43;;
41817;SDS011;27493;51.730;5.294;2023-04-06T03:29:01;21.40;;;12.53;;
41817;SDS011;27493;51.730;5.294;2023-04-06T03:31:26;19.30;;;12.53;;
41817;SDS011;27493;51.730;5.294;2023-04-06T03:33:51;19.37;;;12.37;;
41817;SDS011;27493;51.730;5.294;2023-04-06T03:36:16;20.47;;;12.97;;
41817;SDS011;27493;51.730;5.294;2023-04-06T03:38:42;20.13;;;12.27;;
41817;SDS011;27493;51.730;5.294;2023-04-06T03:41:07;17.97;;;12.10;;
41817;SDS011;27493;51.730;5.294;2023-04-06T03:43:32;20.07;;;12.60;;
41817;SDS011;27493;51.730;5.294;2023-04-06T03:45:57;20.30;;;12.70;;
41817;SDS011;27493;51.730;5.294;2023-04-06T03:48:22;21.80;;;12.77;;
41817;SDS011;27493;51.730;5.294;2023-04-06T03:50:47;20.97;;;12.07;;
41817;SDS011;27493;51.730;5.294;2023-04-06T03:53:12;19.67;;;13.27;;
41817;SDS011;27493;51.730;5.294;2023-04-06T03:55:38;20.40;;;12.53;;
41817;SDS011;27493;51.730;5.294;2023-04-06T03:58:03;21.53;;;12.47;;
41817;SDS011;27493;51.730;5.294;2023-04-06T04:00:28;21.07;;;13.00;;
41817;SDS011;27493;51.730;5.294;2023-04-06T04:02:53;24.37;;;13.20;;
41817;SDS011;27493;51.730;5.294;2023-04-06T04:05:18;22.83;;;13.77;;
41817;SDS011;27493;51.730;5.294;2023-04-06T04:07:44;22.20;;;13.80;;
41817;SDS011;27493;51.730;5.294;2023-04-06T04:10:09;20.70;;;13.53;;
41817;SDS011;27493;51.730;5.294;2023-04-06T04:12:35;21.43;;;13.43;;
41817;SDS011;27493;51.730;5.294;2023-04-06T04:15:00;22.97;;;13.10;;
41817;SDS011;27493;51.730;5.294;2023-04-06T04:17:25;23.37;;;13.30;;
41817;SDS011;27493;51.730;5.294;2023-04-06T04:19:50;21.90;;;12.87;;
41817;SDS011;27493;51.730;5.294;2023-04-06T04:22:15;22.67;;;13.67;;
41817;SDS011;27493;51.730;5.294;2023-04-06T04:24:41;20.77;;;13.10;;
41817;SDS011;27493;51.730;5.294;2023-04-06T04:27:06;23.20;;;14.83;;
41817;SDS011;27493;51.730;5.294;2023-04-06T04:29:31;22.77;;;13.80;;
41817;SDS011;27493;51.730;5.294;2023-04-06T04:31:56;21.20;;;13.50;;
41817;SDS011;27493;51.730;5.294;2023-04-06T04:34:22;21.47;;;14.33;;
41817;SDS011;27493;51.730;5.294;2023-04-06T04:36:50;19.97;;;13.93;;
41817;SDS011;27493;51.730;5.294;2023-04-06T04:39:15;20.63;;;13.60;;
41817;SDS011;27493;51.730;5.294;2023-04-06T04:41:40;20.63;;;14.07;;
41817;SDS011;27493;51.730;5.294;2023-04-06T04:44:05;24.43;;;14.97;;
41817;SDS011;27493;51.730;5.294;2023-04-06T04:46:30;23.40;;;14.50;;
41817;SDS011;27493;51.730;5.294;2023-04-06T04:48:56;21.63;;;14.53;;
41817;SDS011;27493;51.730;5.294;2023-04-06T04:51:21;23.17;;;14.13;;
41817;SDS011;27493;51.730;5.294;2023-04-06T04:53:46;21.50;;;13.80;;
41817;SDS011;27493;51.730;5.294;2023-04-06T04:56:11;19.47;;;13.43;;
41817;SDS011;27493;51.730;5.294;2023-04-06T04:58:36;22.20;;;13.87;;
41817;SDS011;27493;51.730;5.294;2023-04-06T05:01:02;24.53;;;15.33;;
41817;SDS011;27493;51.730;5.294;2023-04-06T05:03:27;22.90;;;14.07;;
41817;SDS011;27493;51.730;5.294;2023-04-06T05:05:52;24.20;;;14.53;;
41817;SDS011;27493;51.730;5.294;2023-04-06T05:08:17;27.03;;;14.67;;
41817;SDS011;27493;51.730;5.294;2023-04-06T05:10:43;23.73;;;14.27;;
41817;SDS011;27493;51.730;5.294;2023-04-06T05:13:09;22.03;;;14.43;;
41817;SDS011;27493;51.730;5.294;2023-04-06T05:15:34;24.57;;;14.93;;
41817;SDS011;27493;51.730;5.294;2023-04-06T05:18:00;27.20;;;15.20;;
41817;SDS011;27493;51.730;5.294;2023-04-06T05:20:25;21.90;;;14.23;;
41817;SDS011;27493;51.730;5.294;2023-04-06T05:22:50;27.17;;;15.30;;
41817;SDS011;27493;51.730;5.294;2023-04-06T05:25:15;24.23;;;14.47;;
41817;SDS011;27493;51.730;5.294;2023-04-06T05:27:40;30.30;;;14.50;;
41817;SDS011;27493;51.730;5.294;2023-04-06T05:30:06;25.00;;;14.73;;
41817;SDS011;27493;51.730;5.294;2023-04-06T05:32:32;23.27;;;14.33;;
41817;SDS011;27493;51.730;5.294;2023-04-06T05:34:57;23.10;;;15.20;;
41817;SDS011;27493;51.730;5.294;2023-04-06T05:37:22;25.07;;;14.37;;
41817;SDS011;27493;51.730;5.294;2023-04-06T05:39:47;24.70;;;15.23;;
41817;SDS011;27493;51.730;5.294;2023-04-06T05:42:13;25.07;;;14.33;;
41817;SDS011;27493;51.730;5.294;2023-04-06T05:44:38;22.17;;;13.97;;
41817;SDS011;27493;51.730;5.294;2023-04-06T05:47:03;21.93;;;14.07;;
41817;SDS011;27493;51.730;5.294;2023-04-06T05:49:28;24.77;;;14.40;;
41817;SDS011;27493;51.730;5.294;2023-04-06T05:51:54;23.80;;;14.67;;
41817;SDS011;27493;51.730;5.294;2023-04-06T05:54:19;23.53;;;14.50;;
41817;SDS011;27493;51.730;5.294;2023-04-06T05:56:44;23.60;;;14.63;;
41817;SDS011;27493;51.730;5.294;2023-04-06T05:59:10;23.33;;;14.37;;
41817;SDS011;27493;51.730;5.294;2023-04-06T06:01:35;21.20;;;13.80;;
41817;SDS011;27493;51.730;5.294;2023-04-06T06:04:01;25.20;;;14.43;;
41817;SDS011;27493;51.730;5.294;2023-04-06T06:06:27;25.83;;;14.20;;
41817;SDS011;27493;51.730;5.294;2023-04-06T06:08:52;23.27;;;14.53;;
41817;SDS011;27493;51.730;5.294;2023-04-06T06:11:17;25.70;;;14.53;;
41817;SDS011;27493;51.730;5.294;2023-04-06T06:13:42;23.83;;;13.87;;
41817;SDS011;27493;51.730;5.294;2023-04-06T06:16:08;26.37;;;15.17;;
41817;SDS011;27493;51.730;5.294;2023-04-06T06:18:33;20.73;;;13.63;;
41817;SDS011;27493;51.730;5.294;2023-04-06T06:24:01;26.53;;;13.83;;
41817;SDS011;27493;51.730;5.294;2023-04-06T06:26:38;27.57;;;14.47;;
41817;SDS011;27493;51.730;5.294;2023-04-06T06:29:04;23.47;;;13.40;;
41817;SDS011;27493;51.730;5.294;2023-04-06T06:31:32;22.07;;;14.27;;
41817;SDS011;27493;51.730;5.294;2023-04-06T06:33:57;24.63;;;14.53;;
41817;SDS011;27493;51.730;5.294;2023-04-06T06:36:23;23.87;;;14.27;;
41817;SDS011;27493;51.730;5.294;2023-04-06T06:38:48;25.13;;;14.43;;
41817;SDS011;27493;51.730;5.294;2023-04-06T06:41:13;20.67;;;13.27;;
41817;SDS011;27493;51.730;5.294;2023-04-06T06:43:38;21.83;;;13.57;;
41817;SDS011;27493;51.730;5.294;2023-04-06T06:46:03;29.00;;;13.60;;
41817;SDS011;27493;51.730;5.294;2023-04-06T06:48:29;26.73;;;14.47;;
41817;SDS011;27493;51.730;5.294;2023-04-06T06:50:55;26.00;;;13.37;;
41817;SDS011;27493;51.730;5.294;2023-04-06T06:53:20;22.90;;;13.70;;
41817;SDS011;27493;51.730;5.294;2023-04-06T06:55:45;20.60;;;13.70;;
41817;SDS011;27493;51.730;5.294;2023-04-06T06:58:11;24.70;;;13.83;;
41817;SDS011;27493;51.730;5.294;2023-04-06T07:00:36;22.33;;;13.80;;
41817;SDS011;27493;51.730;5.294;2023-04-06T07:03:01;22.90;;;14.13;;
41817;SDS011;27493;51.730;5.294;2023-04-06T07:05:26;24.17;;;14.23;;
41817;SDS011;27493;51.730;5.294;2023-04-06T07:07:52;22.87;;;14.97;;
41817;SDS011;27493;51.730;5.294;2023-04-06T07:10:17;20.77;;;13.70;;
41817;SDS011;27493;51.730;5.294;2023-04-06T07:12:42;21.33;;;13.73;;
41817;SDS011;27493;51.730;5.294;2023-04-06T07:15:07;24.10;;;14.00;;
41817;SDS011;27493;51.730;5.294;2023-04-06T07:17:33;23.67;;;13.90;;
41817;SDS011;27493;51.730;5.294;2023-04-06T07:19:58;24.57;;;14.50;;
41817;SDS011;27493;51.730;5.294;2023-04-06T07:22:23;21.07;;;14.33;;
41817;SDS011;27493;51.730;5.294;2023-04-06T07:24:48;25.77;;;14.43;;
41817;SDS011;27493;51.730;5.294;2023-04-06T07:27:13;22.67;;;14.57;;
41817;SDS011;27493;51.730;5.294;2023-04-06T07:29:39;21.07;;;13.97;;
41817;SDS011;27493;51.730;5.294;2023-04-06T07:32:04;28.50;;;14.63;;
41817;SDS011;27493;51.730;5.294;2023-04-06T07:34:29;26.37;;;15.20;;
41817;SDS011;27493;51.730;5.294;2023-04-06T07:36:54;22.40;;;13.60;;
41817;SDS011;27493;51.730;5.294;2023-04-06T07:39:21;23.77;;;15.23;;
41817;SDS011;27493;51.730;5.294;2023-04-06T07:41:46;22.97;;;14.27;;
41817;SDS011;27493;51.730;5.294;2023-04-06T07:44:11;20.87;;;14.13;;
41817;SDS011;27493;51.730;5.294;2023-04-06T07:46:37;24.27;;;14.40;;
41817;SDS011;27493;51.730;5.294;2023-04-06T07:49:02;25.17;;;14.97;;
41817;SDS011;27493;51.730;5.294;2023-04-06T07:51:27;27.73;;;15.27;;
41817;SDS011;27493;51.730;5.294;2023-04-06T07:53:52;24.03;;;15.40;;
41817;SDS011;27493;51.730;5.294;2023-04-06T07:56:18;24.20;;;14.53;;
41817;SDS011;27493;51.730;5.294;2023-04-06T07:58:43;24.47;;;14.50;;
41817;SDS011;27493;51.730;5.294;2023-04-06T08:01:08;27.17;;;15.10;;
41817;SDS011;27493;51.730;5.294;2023-04-06T08:03:34;25.20;;;15.63;;
41817;SDS011;27493;51.730;5.294;2023-04-06T08:05:59;24.53;;;14.17;;
41817;SDS011;27493;51.730;5.294;2023-04-06T08:08:24;23.00;;;14.77;;
41817;SDS011;27493;51.730;5.294;2023-04-06T08:10:50;23.93;;;15.10;;
41817;SDS011;27493;51.730;5.294;2023-04-06T08:13:15;25.17;;;15.60;;
41817;SDS011;27493;51.730;5.294;2023-04-06T08:15:41;24.63;;;16.20;;
41817;SDS011;27493;51.730;5.294;2023-04-06T08:18:06;28.73;;;15.97;;
41817;SDS011;27493;51.730;5.294;2023-04-06T08:20:31;27.37;;;16.03;;
41817;SDS011;27493;51.730;5.294;2023-04-06T08:22:56;28.57;;;15.63;;
41817;SDS011;27493;51.730;5.294;2023-04-06T08:25:21;25.03;;;15.93;;
41817;SDS011;27493;51.730;5.294;2023-04-06T08:27:47;27.10;;;16.00;;
41817;SDS011;27493;51.730;5.294;2023-04-06T08:30:12;22.70;;;15.73;;
41817;SDS011;27493;51.730;5.294;2023-04-06T08:32:37;30.33;;;15.87;;
41817;SDS011;27493;51.730;5.294;2023-04-06T08:35:02;23.73;;;15.17;;
41817;SDS011;27493;51.730;5.294;2023-04-06T08:37:27;25.17;;;15.57;;
41817;SDS011;27493;51.730;5.294;2023-04-06T08:39:53;25.30;;;15.27;;
41817;SDS011;27493;51.730;5.294;2023-04-06T08:42:21;25.33;;;15.43;;
41817;SDS011;27493;51.730;5.294;2023-04-06T08:44:49;24.53;;;15.27;;
41817;SDS011;27493;51.730;5.294;2023-04-06T08:47:17;28.73;;;15.70;;
41817;SDS011;27493;51.730;5.294;2023-04-06T08:49:42;26.13;;;15.90;;
41817;SDS011;27493;51.730;5.294;2023-04-06T08:52:08;25.67;;;16.30;;
41817;SDS011;27493;51.730;5.294;2023-04-06T08:54:35;28.83;;;17.00;;
41817;SDS011;27493;51.730;5.294;2023-04-06T08:57:00;24.07;;;16.13;;
41817;SDS011;27493;51.730;5.294;2023-04-06T08:59:26;25.47;;;16.50;;
41817;SDS011;27493;51.730;5.294;2023-04-06T09:01:51;29.17;;;16.63;;
41817;SDS011;27493;51.730;5.294;2023-04-06T09:04:17;28.97;;;16.57;;
41817;SDS011;27493;51.730;5.294;2023-04-06T09:06:43;32.30;;;17.37;;
41817;SDS011;27493;51.730;5.294;2023-04-06T09:09:08;26.33;;;16.13;;
41817;SDS011;27493;51.730;5.294;2023-04-06T09:11:43;32.70;;;16.90;;
41817;SDS011;27493;51.730;5.294;2023-04-06T09:14:09;28.87;;;17.07;;
41817;SDS011;27493;51.730;5.294;2023-04-06T09:16:41;27.10;;;16.97;;
41817;SDS011;27493;51.730;5.294;2023-04-06T09:19:06;25.27;;;16.00;;
41817;SDS011;27493;51.730;5.294;2023-04-06T09:21:32;28.83;;;16.90;;
41817;SDS011;27493;51.730;5.294;2023-04-06T09:23:58;25.50;;;15.67;;
41817;SDS011;27493;51.730;5.294;2023-04-06T09:26:23;27.23;;;15.63;;
41817;SDS011;27493;51.730;5.294;2023-04-06T09:31:15;24.00;;;15.47;;
41817;SDS011;27493;51.730;5.294;2023-04-06T09:33:41;23.60;;;15.17;;
41817;SDS011;27493;51.730;5.294;2023-04-06T09:36:07;20.83;;;14.07;;
41817;SDS011;27493;51.730;5.294;2023-04-06T09:38:34;21.23;;;13.67;;
41817;SDS011;27493;51.730;5.294;2023-04-06T09:40:59;20.37;;;13.90;;
41817;SDS011;27493;51.730;5.294;2023-04-06T09:43:28;21.57;;;14.80;;
41817;SDS011;27493;51.730;5.294;2023-04-06T09:45:54;23.43;;;14.20;;
41817;SDS011;27493;51.730;5.294;2023-04-06T09:48:20;20.53;;;14.37;;
41817;SDS011;27493;51.730;5.294;2023-04-06T09:50:46;23.50;;;14.57;;
41817;SDS011;27493;51.730;5.294;2023-04-06T09:53:12;21.73;;;13.17;;
41817;SDS011;27493;51.730;5.294;2023-04-06T09:55:41;21.73;;;14.17;;
41817;SDS011;27493;51.730;5.294;2023-04-06T09:58:09;15.67;;;11.73;;
41817;SDS011;27493;51.730;5.294;2023-04-06T10:00:40;19.23;;;11.57;;
41817;SDS011;27493;51.730;5.294;2023-04-06T10:05:43;16.57;;;10.93;;
41817;SDS011;27493;51.730;5.294;2023-04-06T10:08:11;17.47;;;11.13;;
41817;SDS011;27493;51.730;5.294;2023-04-06T10:10:36;18.07;;;11.53;;
41817;SDS011;27493;51.730;5.294;2023-04-06T10:13:02;14.43;;;10.00;;
41817;SDS011;27493;51.730;5.294;2023-04-06T10:15:28;15.90;;;10.50;;
41817;SDS011;27493;51.730;5.294;2023-04-06T10:17:53;17.00;;;9.93;;
41817;SDS011;27493;51.730;5.294;2023-04-06T10:20:34;16.13;;;10.13;;
41817;SDS011;27493;51.730;5.294;2023-04-06T10:25:57;14.90;;;9.60;;
41817;SDS011;27493;51.730;5.294;2023-04-06T10:28:23;16.00;;;9.67;;
41817;SDS011;27493;51.730;5.294;2023-04-06T10:30:48;16.50;;;9.47;;
41817;SDS011;27493;51.730;5.294;2023-04-06T10:33:17;13.13;;;9.60;;
41817;SDS011;27493;51.730;5.294;2023-04-06T10:35:43;14.70;;;9.23;;
41817;SDS011;27493;51.730;5.294;2023-04-06T10:38:08;13.67;;;9.57;;
41817;SDS011;27493;51.730;5.294;2023-04-06T10:40:37;18.77;;;9.50;;
41817;SDS011;27493;51.730;5.294;2023-04-06T10:43:10;13.10;;;9.33;;
41817;SDS011;27493;51.730;5.294;2023-04-06T10:45:35;14.10;;;9.37;;
41817;SDS011;27493;51.730;5.294;2023-04-06T10:48:01;15.73;;;9.50;;
41817;SDS011;27493;51.730;5.294;2023-04-06T10:50:37;14.13;;;9.67;;
41817;SDS011;27493;51.730;5.294;2023-04-06T10:53:02;15.60;;;10.10;;
41817;SDS011;27493;51.730;5.294;2023-04-06T10:55:28;13.50;;;8.90;;
41817;SDS011;27493;51.730;5.294;2023-04-06T10:57:54;16.10;;;9.63;;
41817;SDS011;27493;51.730;5.294;2023-04-06T11:00:19;14.57;;;9.90;;
41817;SDS011;27493;51.730;5.294;2023-04-06T11:02:45;14.30;;;9.20;;
41817;SDS011;27493;51.730;5.294;2023-04-06T11:05:11;16.23;;;9.87;;
41817;SDS011;27493;51.730;5.294;2023-04-06T11:07:36;14.23;;;8.67;;
41817;SDS011;27493;51.730;5.294;2023-04-06T11:10:01;13.07;;;8.77;;
41817;SDS011;27493;51.730;5.294;2023-04-06T11:12:27;16.10;;;9.93;;
41817;SDS011;27493;51.730;5.294;2023-04-06T11:14:56;15.40;;;10.10;;
41817;SDS011;27493;51.730;5.294;2023-04-06T11:17:27;14.43;;;9.97;;
41817;SDS011;27493;51.730;5.294;2023-04-06T11:19:52;13.97;;;9.67;;
41817;SDS011;27493;51.730;5.294;2023-04-06T11:22:17;15.33;;;9.97;;
41817;SDS011;27493;51.730;5.294;2023-04-06T11:24:42;14.13;;;10.13;;
41817;SDS011;27493;51.730;5.294;2023-04-06T11:27:08;16.43;;;9.93;;
41817;SDS011;27493;51.730;5.294;2023-04-06T11:29:33;13.80;;;9.30;;
41817;SDS011;27493;51.730;5.294;2023-04-06T11:32:05;15.03;;;9.60;;
41817;SDS011;27493;51.730;5.294;2023-04-06T11:34:32;15.63;;;10.20;;
41817;SDS011;27493;51.730;5.294;2023-04-06T11:36:59;14.67;;;9.17;;
41817;SDS011;27493;51.730;5.294;2023-04-06T11:39:25;13.87;;;9.57;;
41817;SDS011;27493;51.730;5.294;2023-04-06T11:41:51;13.33;;;9.93;;
41817;SDS011;27493;51.730;5.294;2023-04-06T11:44:31;18.00;;;10.47;;
41817;SDS011;27493;51.730;5.294;2023-04-06T11:46:57;17.07;;;10.30;;
41817;SDS011;27493;51.730;5.294;2023-04-06T11:49:26;17.10;;;9.80;;
41817;SDS011;27493;51.730;5.294;2023-04-06T11:51:51;14.57;;;9.90;;
41817;SDS011;27493;51.730;5.294;2023-04-06T11:54:16;15.57;;;10.33;;
41817;SDS011;27493;51.730;5.294;2023-04-06T11:56:42;15.23;;;9.83;;
41817;SDS011;27493;51.730;5.294;2023-04-06T11:59:11;14.90;;;9.87;;
41817;SDS011;27493;51.730;5.294;2023-04-06T12:01:44;14.70;;;9.83;;
41817;SDS011;27493;51.730;5.294;2023-04-06T12:04:09;14.00;;;9.50;;
41817;SDS011;27493;51.730;5.294;2023-04-06T12:06:34;12.20;;;8.83;;
41817;SDS011;27493;51.730;5.294;2023-04-06T12:09:00;14.10;;;9.80;;
41817;SDS011;27493;51.730;5.294;2023-04-06T12:11:25;14.60;;;10.20;;
41817;SDS011;27493;51.730;5.294;2023-04-06T12:13:50;13.37;;;9.90;;
41817;SDS011;27493;51.730;5.294;2023-04-06T12:16:15;13.87;;;9.07;;
41817;SDS011;27493;51.730;5.294;2023-04-06T12:18:40;14.03;;;9.70;;
41817;SDS011;27493;51.730;5.294;2023-04-06T12:21:05;12.73;;;10.00;;
41817;SDS011;27493;51.730;5.294;2023-04-06T12:23:31;15.03;;;10.37;;
41817;SDS011;27493;51.730;5.294;2023-04-06T12:25:56;15.47;;;10.80;;
41817;SDS011;27493;51.730;5.294;2023-04-06T12:28:21;14.97;;;10.93;;
41817;SDS011;27493;51.730;5.294;2023-04-06T12:30:48;14.73;;;10.20;;
41817;SDS011;27493;51.730;5.294;2023-04-06T12:33:13;14.03;;;9.70;;
41817;SDS011;27493;51.730;5.294;2023-04-06T12:35:38;14.53;;;9.93;;
41817;SDS011;27493;51.730;5.294;2023-04-06T12:38:03;14.03;;;10.03;;
41817;SDS011;27493;51.730;5.294;2023-04-06T12:40:29;15.17;;;11.23;;
41817;SDS011;27493;51.730;5.294;2023-04-06T12:42:54;15.50;;;10.30;;
41817;SDS011;27493;51.730;5.294;2023-04-06T12:45:19;14.73;;;10.17;;
41817;SDS011;27493;51.730;5.294;2023-04-06T12:47:44;16.57;;;10.77;;
41817;SDS011;27493;51.730;5.294;2023-04-06T12:50:10;17.83;;;11.07;;
41817;SDS011;27493;51.730;5.294;2023-04-06T12:52:35;16.53;;;11.03;;
41817;SDS011;27493;51.730;5.294;2023-04-06T12:55:01;18.13;;;11.13;;
41817;SDS011;27493;51.730;5.294;2023-04-06T12:57:27;18.63;;;10.97;;
41817;SDS011;27493;51.730;5.294;2023-04-06T12:59:52;15.40;;;10.60;;
41817;SDS011;27493;51.730;5.294;2023-04-06T13:02:17;18.00;;;11.13;;
41817;SDS011;27493;51.730;5.294;2023-04-06T13:04:44;19.27;;;10.77;;
41817;SDS011;27493;51.730;5.294;2023-04-06T13:07:10;15.97;;;11.23;;
41817;SDS011;27493;51.730;5.294;2023-04-06T13:09:35;16.70;;;10.13;;
41817;SDS011;27493;51.730;5.294;2023-04-06T13:12:00;16.63;;;11.10;;
41817;SDS011;27493;51.730;5.294;2023-04-06T13:14:26;19.07;;;10.43;;
41817;SDS011;27493;51.730;5.294;2023-04-06T13:16:51;15.80;;;10.90;;
41817;SDS011;27493;51.730;5.294;2023-04-06T13:19:16;16.70;;;10.90;;
41817;SDS011;27493;51.730;5.294;2023-04-06T13:21:43;17.63;;;11.73;;
41817;SDS011;27493;51.730;5.294;2023-04-06T13:24:08;15.40;;;10.47;;
41817;SDS011;27493;51.730;5.294;2023-04-06T13:26:34;15.33;;;10.17;;
41817;SDS011;27493;51.730;5.294;2023-04-06T13:29:00;18.47;;;11.07;;
41817;SDS011;27493;51.730;5.294;2023-04-06T13:31:27;15.57;;;9.97;;
41817;SDS011;27493;51.730;5.294;2023-04-06T13:33:52;15.47;;;10.53;;
41817;SDS011;27493;51.730;5.294;2023-04-06T13:36:17;18.33;;;10.77;;
41817;SDS011;27493;51.730;5.294;2023-04-06T13:38:43;15.23;;;10.20;;
41817;SDS011;27493;51.730;5.294;2023-04-06T13:41:08;15.07;;;10.17;;
41817;SDS011;27493;51.730;5.294;2023-04-06T13:43:33;15.93;;;9.93;;
41817;SDS011;27493;51.730;5.294;2023-04-06T13:45:58;16.83;;;10.83;;
41817;SDS011;27493;51.730;5.294;2023-04-06T13:48:25;16.10;;;10.50;;
41817;SDS011;27493;51.730;5.294;2023-04-06T13:50:53;15.07;;;10.60;;
41817;SDS011;27493;51.730;5.294;2023-04-06T13:53:18;16.87;;;9.73;;
41817;SDS011;27493;51.730;5.294;2023-04-06T13:55:43;14.43;;;10.13;;
41817;SDS011;27493;51.730;5.294;2023-04-06T13:58:09;14.90;;;9.87;;
41817;SDS011;27493;51.730;5.294;2023-04-06T14:00:34;15.50;;;9.90;;
41817;SDS011;27493;51.730;5.294;2023-04-06T14:03:00;16.07;;;9.97;;
41817;SDS011;27493;51.730;5.294;2023-04-06T14:05:25;15.37;;;9.40;;
41817;SDS011;27493;51.730;5.294;2023-04-06T14:07:52;15.40;;;9.63;;
41817;SDS011;27493;51.730;5.294;2023-04-06T14:10:17;13.70;;;9.67;;
41817;SDS011;27493;51.730;5.294;2023-04-06T14:12:46;15.73;;;9.27;;
41817;SDS011;27493;51.730;5.294;2023-04-06T14:15:11;14.17;;;8.80;;
41817;SDS011;27493;51.730;5.294;2023-04-06T14:17:36;13.73;;;8.90;;
41817;SDS011;27493;51.730;5.294;2023-04-06T14:20:02;14.53;;;9.83;;
41817;SDS011;27493;51.730;5.294;2023-04-06T14:22:27;14.43;;;9.73;;
41817;SDS011;27493;51.730;5.294;2023-04-06T14:24:52;14.37;;;8.83;;